Time;durP1;ratioP1;P1;durP2;ratioP2;P2;SDS_P1;SDS_P2;PMS_P1;PMS_P2;Temp;Humidity;BMP_temperature;BMP_pressure;BME280_temperature;BME280_humidity;BME280_pressure;Samples;Min_cycle;Max_cycle;Signal;HPM_P1;HPM_P2
2023/08/28 00:00:15;;;;;;;4.80;1.48;;;14.00;99.90;;;;;;5063167;28;20045;-71
2023/08/28 00:02:41;;;;;;;2.15;1.05;;;13.90;99.90;;;;;;5066309;28;20416;-72
2023/08/28 00:05:06;;;;;;;6.13;2.10;;;14.00;99.90;;;;;;5066468;28;20047;-73
2023/08/28 00:07:33;;;;;;;3.67;1.83;;;14.00;99.90;;;;;;5066218;28;20048;-71
2023/08/28 00:09:59;;;;;;;4.50;1.50;;;14.00;99.90;;;;;;5065605;28;20044;-71
2023/08/28 00:12:25;;;;;;;4.85;1.30;;;14.00;99.90;;;;;;5064879;28;20041;-72
2023/08/28 00:14:51;;;;;;;3.67;1.17;;;13.90;99.90;;;;;;5065312;28;20429;-72
2023/08/28 00:17:17;;;;;;;4.82;1.35;;;13.90;99.90;;;;;;5065101;28;20547;-73
2023/08/28 00:19:43;;;;;;;2.67;1.20;;;13.90;99.90;;;;;;5058398;28;20102;-72
2023/08/28 00:22:09;;;;;;;7.63;1.52;;;13.90;99.90;;;;;;5066828;28;20044;-72
2023/08/28 00:24:35;;;;;;;6.63;1.15;;;13.90;99.90;;;;;;5063831;28;20040;-72
2023/08/28 00:27:00;;;;;;;5.07;1.55;;;13.90;99.90;;;;;;5063690;28;20055;-72
2023/08/28 00:29:26;;;;;;;3.63;1.00;;;13.80;99.90;;;;;;5066273;28;20076;-72
2023/08/28 00:31:52;;;;;;;6.90;1.83;;;13.80;99.90;;;;;;5065019;28;20449;-73
2023/08/28 00:34:18;;;;;;;7.72;1.40;;;13.80;99.90;;;;;;5064199;28;20037;-73
2023/08/28 00:36:43;;;;;;;2.85;1.10;;;13.80;99.90;;;;;;5065719;28;20070;-73
2023/08/28 00:39:09;;;;;;;5.63;1.40;;;13.80;99.90;;;;;;5064169;28;20102;-73
2023/08/28 00:41:36;;;;;;;3.33;1.23;;;13.80;99.90;;;;;;5061269;28;20651;-72
2023/08/28 00:44:03;;;;;;;2.53;1.20;;;13.80;99.90;;;;;;5048247;28;20080;-71
2023/08/28 00:46:30;;;;;;;5.50;1.50;;;13.70;99.90;;;;;;5064485;28;20501;-72
2023/08/28 00:48:56;;;;;;;3.58;1.27;;;13.70;99.90;;;;;;5048230;28;20083;-72
2023/08/28 00:51:22;;;;;;;3.53;1.10;;;13.70;99.90;;;;;;5047871;28;20045;-72
2023/08/28 00:53:48;;;;;;;3.58;1.27;;;13.70;99.90;;;;;;5053218;28;20053;-72
2023/08/28 00:56:14;;;;;;;3.90;1.05;;;13.70;99.90;;;;;;5064534;28;20079;-73
2023/08/28 00:58:41;;;;;;;3.42;1.15;;;13.70;99.90;;;;;;5046879;28;20831;-72
2023/08/28 01:01:07;;;;;;;3.97;1.13;;;13.70;99.90;;;;;;5066458;28;20033;-72
2023/08/28 01:03:32;;;;;;;7.45;1.48;;;13.70;99.90;;;;;;5067611;28;20302;-72
2023/08/28 01:06:10;;;;;;;5.70;1.20;;;13.60;99.90;;;;;;5068927;28;20068;-72
2023/08/28 01:08:45;;;;;;;3.75;1.30;;;13.60;99.90;;;;;;5067807;28;20665;-72
2023/08/28 01:11:18;;;;;;;3.25;1.20;;;13.60;99.90;;;;;;5055203;28;20135;-73
2023/08/28 01:14:00;;;;;;;3.20;1.17;;;13.60;99.90;;;;;;5051075;28;20127;-73
2023/08/28 01:16:28;;;;;;;3.97;1.13;;;13.60;99.90;;;;;;5051929;28;20095;-72
2023/08/28 01:18:54;;;;;;;5.13;1.20;;;13.60;99.90;;;;;;5068794;28;20056;-71
2023/08/28 01:21:21;;;;;;;4.78;1.20;;;13.60;99.90;;;;;;5051663;28;20036;-72
2023/08/28 01:23:55;;;;;;;2.55;1.30;;;13.60;99.90;;;;;;5062620;28;20044;-72
2023/08/28 01:26:22;;;;;;;4.68;1.10;;;13.60;99.90;;;;;;5067773;28;20127;-72
2023/08/28 01:28:48;;;;;;;2.20;1.10;;;13.60;99.90;;;;;;5068558;28;20037;-72
2023/08/28 01:31:13;;;;;;;4.32;1.15;;;13.60;99.90;;;;;;5067553;28;20107;-72
2023/08/28 01:33:40;;;;;;;2.80;1.17;;;13.50;99.90;;;;;;5061794;28;20053;-72
2023/08/28 01:36:11;;;;;;;4.22;1.20;;;13.50;99.90;;;;;;5032057;28;20067;-72
2023/08/28 01:38:45;;;;;;;4.72;1.40;;;13.50;99.90;;;;;;5060057;28;20064;-71
2023/08/28 01:41:13;;;;;;;5.45;1.48;;;13.50;99.90;;;;;;5063259;28;20502;-72
2023/08/28 01:43:46;;;;;;;5.30;1.25;;;13.50;99.90;;;;;;5064106;28;20040;-72
2023/08/28 01:46:14;;;;;;;2.63;0.98;;;13.50;99.90;;;;;;5064436;28;20217;-72
2023/08/28 01:48:46;;;;;;;3.22;1.23;;;13.40;99.90;;;;;;5063436;28;20056;-73
2023/08/28 01:51:13;;;;;;;6.13;1.30;;;13.40;99.90;;;;;;5066644;28;20090;-71
2023/08/28 01:53:38;;;;;;;3.97;1.30;;;13.40;99.90;;;;;;5064755;28;20139;-72
2023/08/28 01:56:07;;;;;;;4.30;1.20;;;13.40;99.90;;;;;;5063823;28;20047;-71
2023/08/28 01:58:40;;;;;;;3.20;1.27;;;13.40;99.90;;;;;;5069813;28;20080;-71
2023/08/28 02:01:06;;;;;;;2.38;1.10;;;13.40;99.90;;;;;;5067216;28;20040;-72
2023/08/28 02:03:32;;;;;;;4.47;1.60;;;13.40;99.90;;;;;;5068712;28;20577;-72
2023/08/28 02:05:58;;;;;;;2.08;1.10;;;13.40;99.90;;;;;;5067983;28;20449;-72
2023/08/28 02:08:23;;;;;;;4.07;1.42;;;13.30;99.90;;;;;;5065902;28;20078;-71
2023/08/28 02:10:49;;;;;;;4.05;1.20;;;13.30;99.90;;;;;;5067293;28;20049;-72
2023/08/28 02:13:15;;;;;;;6.55;1.20;;;13.30;99.90;;;;;;5043556;28;20079;-71
2023/08/28 02:15:41;;;;;;;3.25;1.30;;;13.30;99.90;;;;;;5050851;28;20044;-73
2023/08/28 02:18:06;;;;;;;3.55;1.20;;;13.30;99.90;;;;;;5068609;28;20052;-71
2023/08/28 02:20:32;;;;;;;3.92;1.27;;;13.30;99.90;;;;;;5068159;28;20036;-73
2023/08/28 02:22:58;;;;;;;4.13;1.40;;;13.20;99.90;;;;;;5067858;28;20037;-72
2023/08/28 02:25:25;;;;;;;3.20;1.30;;;13.20;99.90;;;;;;5061674;28;20125;-72
2023/08/28 02:27:51;;;;;;;4.93;1.40;;;13.20;99.90;;;;;;5057615;28;20135;-72
2023/08/28 02:30:17;;;;;;;3.17;1.23;;;13.20;99.90;;;;;;5047251;28;20123;-72
2023/08/28 02:32:46;;;;;;;4.70;1.45;;;13.10;99.90;;;;;;5066416;28;20060;-72
2023/08/28 02:35:14;;;;;;;3.22;1.10;;;13.10;99.90;;;;;;5067432;28;20059;-73
2023/08/28 02:37:40;;;;;;;4.07;1.30;;;13.10;99.90;;;;;;5067401;28;20044;-72
2023/08/28 02:40:09;;;;;;;6.00;1.25;;;13.10;99.90;;;;;;5067557;28;20103;-73
2023/08/28 02:42:36;;;;;;;3.15;1.33;;;13.10;99.90;;;;;;5066612;28;20591;-73
2023/08/28 02:45:02;;;;;;;3.65;1.27;;;13.10;99.90;;;;;;5047224;28;20093;-72
2023/08/28 02:47:28;;;;;;;5.10;1.20;;;13.00;99.90;;;;;;5066652;28;20098;-72
2023/08/28 02:49:54;;;;;;;3.33;1.40;;;13.00;99.90;;;;;;5068084;28;20090;-73
2023/08/28 02:52:19;;;;;;;5.20;1.33;;;13.00;99.90;;;;;;5066225;28;20080;-73
2023/08/28 02:54:45;;;;;;;4.38;1.60;;;13.00;99.90;;;;;;5052823;28;20131;-72
2023/08/28 02:57:11;;;;;;;4.63;1.73;;;13.00;99.90;;;;;;5047246;28;20080;-71
2023/08/28 02:59:36;;;;;;;3.40;1.20;;;13.00;99.90;;;;;;5029928;28;20118;-71
2023/08/28 03:02:02;;;;;;;6.00;1.50;;;13.00;99.90;;;;;;5059917;28;20052;-72
2023/08/28 03:04:28;;;;;;;4.35;1.60;;;12.90;99.90;;;;;;5066469;28;20040;-72
2023/08/28 03:06:54;;;;;;;6.65;1.63;;;12.90;99.90;;;;;;5065767;28;20074;-72
2023/08/28 03:09:19;;;;;;;4.82;1.70;;;12.90;99.90;;;;;;5065739;28;20052;-73
2023/08/28 03:11:45;;;;;;;5.57;1.80;;;12.90;99.90;;;;;;5065857;28;20049;-73
2023/08/28 03:14:11;;;;;;;4.18;1.65;;;12.90;99.90;;;;;;5060583;28;20397;-72
2023/08/28 03:16:37;;;;;;;3.85;1.80;;;12.90;99.90;;;;;;5066821;28;20037;-68
2023/08/28 03:19:03;;;;;;;4.05;2.00;;;12.80;99.90;;;;;;5066345;28;20045;-67
2023/08/28 03:21:29;;;;;;;5.22;2.00;;;12.80;99.90;;;;;;5065376;28;20089;-68
2023/08/28 03:23:55;;;;;;;4.88;2.00;;;12.80;99.90;;;;;;5046586;28;20052;-68
2023/08/28 03:26:21;;;;;;;5.55;1.80;;;12.80;99.90;;;;;;5055410;28;20036;-68
2023/08/28 03:28:47;;;;;;;6.20;1.92;;;12.80;99.90;;;;;;5063559;28;20128;-67
2023/08/28 03:31:15;;;;;;;4.45;1.80;;;12.80;99.90;;;;;;5065727;28;20119;-67
2023/08/28 03:33:41;;;;;;;5.72;2.10;;;12.80;99.90;;;;;;5047924;28;20043;-68
2023/08/28 03:36:07;;;;;;;6.40;2.00;;;12.80;99.90;;;;;;5064923;28;20541;-68
2023/08/28 03:38:33;;;;;;;3.70;1.50;;;12.90;99.90;;;;;;5061840;28;20052;-67
2023/08/28 03:40:58;;;;;;;6.00;2.10;;;12.80;99.90;;;;;;5064533;28;20049;-67
2023/08/28 03:43:24;;;;;;;5.10;2.00;;;12.90;99.90;;;;;;5058460;28;20037;-67
2023/08/28 03:45:50;;;;;;;3.97;1.80;;;12.80;99.90;;;;;;5065621;28;20162;-68
2023/08/28 03:48:15;;;;;;;5.75;2.30;;;12.80;99.90;;;;;;5066456;28;20048;-67
2023/08/28 03:50:41;;;;;;;7.10;2.17;;;12.80;99.90;;;;;;5063085;28;20533;-68
2023/08/28 03:53:07;;;;;;;3.97;2.05;;;12.80;99.90;;;;;;5064668;28;20053;-67
2023/08/28 03:55:32;;;;;;;3.78;1.70;;;12.80;99.90;;;;;;5065260;28;20049;-67
2023/08/28 03:58:02;;;;;;;5.65;2.00;;;12.80;99.90;;;;;;5063686;28;20044;-68
2023/08/28 04:00:28;;;;;;;6.47;1.90;;;12.80;99.90;;;;;;5059682;28;20045;-67
2023/08/28 04:02:54;;;;;;;4.75;1.90;;;12.80;99.90;;;;;;5062576;28;20126;-67
2023/08/28 04:05:21;;;;;;;5.53;1.70;;;12.80;99.90;;;;;;5064139;28;20044;-67
2023/08/28 04:07:48;;;;;;;4.53;2.00;;;12.80;99.90;;;;;;5060615;28;20114;-67
2023/08/28 04:10:14;;;;;;;5.72;1.92;;;12.80;99.90;;;;;;5053053;28;20072;-67
2023/08/28 04:12:40;;;;;;;4.10;1.80;;;12.70;99.90;;;;;;5063355;28;20076;-67
2023/08/28 04:15:09;;;;;;;4.38;2.00;;;12.70;99.90;;;;;;5064720;28;20503;-67
2023/08/28 04:17:35;;;;;;;4.32;1.63;;;12.70;99.90;;;;;;5060669;28;20381;-67
2023/08/28 04:20:12;;;;;;;4.95;2.00;;;12.70;99.90;;;;;;5059262;28;20044;-67
2023/08/28 04:22:45;;;;;;;5.23;2.07;;;12.70;99.90;;;;;;5060357;28;20043;-67
2023/08/28 04:25:11;;;;;;;4.78;1.92;;;12.70;99.90;;;;;;5059382;28;20817;-68
2023/08/28 04:27:38;;;;;;;5.80;1.77;;;12.70;99.90;;;;;;5059153;28;20052;-67
2023/08/28 04:30:05;;;;;;;6.20;1.80;;;12.70;99.90;;;;;;5061542;28;20048;-68
2023/08/28 04:32:31;;;;;;;4.40;1.60;;;12.70;99.90;;;;;;5057044;28;20048;-67
2023/08/28 04:34:57;;;;;;;4.03;1.70;;;12.70;99.90;;;;;;5060800;28;20548;-67
2023/08/28 04:37:24;;;;;;;3.58;1.63;;;12.70;99.90;;;;;;5057355;28;20039;-68
2023/08/28 04:39:50;;;;;;;4.05;1.70;;;12.70;99.90;;;;;;5064003;28;20047;-67
2023/08/28 04:42:16;;;;;;;5.50;1.63;;;12.70;99.90;;;;;;5049886;28;20048;-68
2023/08/28 04:44:41;;;;;;;5.25;1.60;;;12.60;99.90;;;;;;5064208;28;20068;-68
2023/08/28 04:47:07;;;;;;;5.15;1.83;;;12.70;99.90;;;;;;5063163;28;20051;-67
2023/08/28 04:49:33;;;;;;;5.07;1.60;;;12.70;99.90;;;;;;5058497;28;20136;-67
2023/08/28 04:51:59;;;;;;;5.85;2.10;;;12.70;99.90;;;;;;5056592;28;20737;-67
2023/08/28 04:54:24;;;;;;;3.47;1.50;;;12.60;99.90;;;;;;5058170;28;20050;-67
2023/08/28 04:56:50;;;;;;;3.33;1.50;;;12.70;99.90;;;;;;5056323;28;20098;-66
2023/08/28 04:59:16;;;;;;;4.32;1.70;;;12.60;99.90;;;;;;5057710;28;20048;-66
2023/08/28 05:01:42;;;;;;;4.15;1.75;;;12.60;99.90;;;;;;5056758;28;20045;-67
2023/08/28 05:04:07;;;;;;;3.70;1.55;;;12.60;99.90;;;;;;5060697;28;20465;-66
2023/08/28 05:06:33;;;;;;;5.60;1.90;;;12.60;99.90;;;;;;5061989;28;20037;-66
2023/08/28 05:08:59;;;;;;;8.27;2.05;;;12.60;99.90;;;;;;5060667;28;20098;-66
2023/08/28 05:11:25;;;;;;;4.43;1.75;;;12.60;99.90;;;;;;5061716;28;20102;-67
2023/08/28 05:13:52;;;;;;;3.47;1.73;;;12.60;99.90;;;;;;5058312;28;20071;-67
2023/08/28 05:16:18;;;;;;;5.30;2.17;;;12.60;99.90;;;;;;5057928;28;20124;-67
2023/08/28 05:18:44;;;;;;;4.50;2.10;;;12.60;99.90;;;;;;5070620;28;20126;-67
2023/08/28 05:21:10;;;;;;;5.45;2.20;;;12.60;99.90;;;;;;5060391;28;20565;-67
2023/08/28 05:23:35;;;;;;;5.47;2.25;;;12.60;99.90;;;;;;5063132;28;20076;-67
2023/08/28 05:26:01;;;;;;;4.93;2.20;;;12.60;99.90;;;;;;5066453;28;20138;-67
2023/08/28 05:28:27;;;;;;;4.10;2.50;;;12.70;99.90;;;;;;5065006;28;20131;-66
2023/08/28 05:30:53;;;;;;;5.75;2.30;;;13.00;99.90;;;;;;5048150;28;20534;-67
2023/08/28 05:33:18;;;;;;;6.40;2.33;;;13.20;99.90;;;;;;5066868;28;20142;-67
2023/08/28 05:35:44;;;;;;;6.25;2.13;;;13.30;99.90;;;;;;5064546;28;20554;-68
2023/08/28 05:38:10;;;;;;;3.60;2.03;;;13.30;99.90;;;;;;5062735;28;20409;-67
2023/08/28 05:40:37;;;;;;;3.75;1.80;;;13.30;99.90;;;;;;5051769;28;20123;-67
2023/08/28 05:43:03;;;;;;;4.82;2.20;;;13.30;99.90;;;;;;5064286;28;20213;-68
2023/08/28 05:45:29;;;;;;;5.32;1.98;;;13.30;99.90;;;;;;5066128;28;20094;-67
2023/08/28 05:47:54;;;;;;;5.40;2.15;;;13.20;99.90;;;;;;5068662;28;20056;-67
2023/08/28 05:50:21;;;;;;;5.32;2.10;;;13.20;99.90;;;;;;5051412;28;20048;-67
2023/08/28 05:52:47;;;;;;;4.57;1.88;;;13.20;99.90;;;;;;5068450;28;20432;-67
2023/08/28 05:55:13;;;;;;;3.85;1.90;;;13.20;99.90;;;;;;5048468;28;20505;-67
2023/08/28 05:57:39;;;;;;;4.82;2.05;;;13.20;99.90;;;;;;5066997;28;20043;-67
2023/08/28 06:00:08;;;;;;;5.85;2.03;;;13.20;99.90;;;;;;5065041;28;20044;-67
2023/08/28 06:02:33;;;;;;;4.68;1.92;;;13.20;99.90;;;;;;5067696;28;20052;-68
2023/08/28 06:04:59;;;;;;;4.32;1.92;;;13.20;99.90;;;;;;5067399;28;20047;-68
2023/08/28 06:07:25;;;;;;;5.82;1.80;;;13.30;99.90;;;;;;5066066;28;20043;-73
2023/08/28 06:09:51;;;;;;;6.53;1.83;;;13.20;99.90;;;;;;5053576;28;20476;-68
2023/08/28 06:12:18;;;;;;;6.18;2.03;;;13.20;99.90;;;;;;5067619;28;20044;-68
2023/08/28 06:14:43;;;;;;;4.80;2.10;;;13.30;99.90;;;;;;5068931;28;20047;-65
2023/08/28 06:17:09;;;;;;;7.30;2.00;;;13.30;99.90;;;;;;5066787;28;20401;-68
2023/08/28 06:19:35;;;;;;;4.97;2.25;;;13.30;99.90;;;;;;5049967;28;20040;-68
2023/08/28 06:22:07;;;;;;;5.95;1.92;;;13.30;99.90;;;;;;5049971;28;20904;-67
2023/08/28 06:24:33;;;;;;;5.07;1.90;;;13.40;99.90;;;;;;5064011;28;20197;-68
2023/08/28 06:26:58;;;;;;;5.15;2.42;;;13.40;99.90;;;;;;5072647;28;20697;-67
2023/08/28 06:29:24;;;;;;;6.57;2.00;;;13.40;99.90;;;;;;5067093;28;20413;-67
2023/08/28 06:31:51;;;;;;;5.50;2.15;;;13.50;99.90;;;;;;5065916;28;20044;-67
2023/08/28 06:34:17;;;;;;;5.25;2.00;;;13.50;99.90;;;;;;5065273;28;20059;-67
2023/08/28 06:36:43;;;;;;;5.22;2.10;;;13.60;99.90;;;;;;5058681;28;20243;-67
2023/08/28 06:39:09;;;;;;;7.82;2.35;;;13.60;99.90;;;;;;5064395;28;20405;-67
2023/08/28 06:41:35;;;;;;;5.05;2.33;;;13.60;99.90;;;;;;5066591;28;20276;-66
2023/08/28 06:44:01;;;;;;;7.03;2.20;;;13.60;99.90;;;;;;5047210;28;20548;-67
2023/08/28 06:46:27;;;;;;;5.40;2.17;;;13.60;99.90;;;;;;5065614;28;20048;-66
2023/08/28 06:48:53;;;;;;;5.93;2.13;;;13.70;99.90;;;;;;5063921;28;20135;-67
2023/08/28 06:51:19;;;;;;;6.47;2.50;;;13.70;99.90;;;;;;5066788;28;20131;-67
2023/08/28 06:53:45;;;;;;;10.02;2.40;;;13.70;99.90;;;;;;5049970;28;20036;-67
2023/08/28 06:56:11;;;;;;;13.50;3.00;;;13.80;99.90;;;;;;5064915;28;20078;-67
2023/08/28 06:58:37;;;;;;;8.40;2.80;;;13.80;99.90;;;;;;5066937;28;20075;-67
2023/08/28 07:01:03;;;;;;;9.00;3.28;;;13.90;99.90;;;;;;5066032;28;20053;-67
2023/08/28 07:03:29;;;;;;;6.70;2.45;;;13.90;99.90;;;;;;5066525;28;20045;-67
2023/08/28 07:05:54;;;;;;;5.03;2.00;;;14.00;99.90;;;;;;5066022;28;20508;-68
2023/08/28 07:08:21;;;;;;;7.47;2.25;;;14.00;99.90;;;;;;5067788;28;20139;-67
2023/08/28 07:10:47;;;;;;;6.20;2.55;;;14.10;99.90;;;;;;5065840;28;20154;-67
2023/08/28 07:13:13;;;;;;;5.20;1.90;;;14.20;99.90;;;;;;5066303;28;20049;-67
2023/08/28 07:15:41;;;;;;;6.65;2.38;;;14.20;99.90;;;;;;5064566;28;20079;-67
2023/08/28 07:18:07;;;;;;;5.18;2.00;;;14.20;99.90;;;;;;5071000;28;20036;-67
2023/08/28 07:20:34;;;;;;;6.20;2.00;;;14.30;99.90;;;;;;5066144;28;20063;-67
2023/08/28 07:22:59;;;;;;;5.80;2.33;;;14.40;99.90;;;;;;5065816;28;20124;-67
2023/08/28 07:25:25;;;;;;;5.00;1.90;;;14.50;99.90;;;;;;5067159;28;20592;-67
2023/08/28 07:27:51;;;;;;;4.95;1.88;;;14.70;99.90;;;;;;5065935;28;20047;-68
2023/08/28 07:30:18;;;;;;;7.68;2.10;;;14.80;99.90;;;;;;5060339;28;20404;-68
2023/08/28 07:32:44;;;;;;;5.97;2.15;;;15.00;99.90;;;;;;5047969;28;20115;-67
2023/08/28 07:35:10;;;;;;;5.15;2.08;;;15.20;99.90;;;;;;5065245;28;20135;-68
2023/08/28 07:37:36;;;;;;;5.22;2.40;;;15.30;99.90;;;;;;5055284;28;20045;-68
2023/08/28 07:40:04;;;;;;;5.38;2.00;;;15.50;99.90;;;;;;5053415;28;20060;-68
2023/08/28 07:42:30;;;;;;;8.43;1.73;;;15.70;99.90;;;;;;5056319;28;20063;-68
2023/08/28 07:44:56;;;;;;;7.60;1.90;;;15.80;99.90;;;;;;5047030;28;20051;-68
2023/08/28 07:47:22;;;;;;;7.28;2.20;;;16.00;99.90;;;;;;5049992;28;20412;-68
2023/08/28 07:49:48;;;;;;;5.28;1.80;;;16.10;99.90;;;;;;5058985;28;20059;-68
2023/08/28 07:52:14;;;;;;;3.75;1.58;;;16.20;99.90;;;;;;5061719;28;20032;-68
2023/08/28 07:54:40;;;;;;;8.23;2.00;;;16.30;99.90;;;;;;5035782;28;20401;-68
2023/08/28 07:57:06;;;;;;;5.72;1.70;;;16.50;99.90;;;;;;5051550;28;20377;-68
2023/08/28 07:59:34;;;;;;;4.50;1.50;;;16.70;99.90;;;;;;5052220;28;20043;-68
2023/08/28 08:02:00;;;;;;;4.30;1.52;;;16.80;99.90;;;;;;5050150;28;20137;-68
2023/08/28 08:04:26;;;;;;;6.28;1.88;;;17.00;99.90;;;;;;5051273;28;20131;-68
2023/08/28 08:06:52;;;;;;;5.95;1.38;;;17.10;99.90;;;;;;5030002;28;20051;-68
2023/08/28 08:09:18;;;;;;;5.40;1.30;;;17.30;99.90;;;;;;5050278;28;20060;-68
2023/08/28 08:11:44;;;;;;;6.35;1.40;;;17.40;99.90;;;;;;5051796;28;20041;-71
2023/08/28 08:14:10;;;;;;;4.53;1.10;;;17.50;99.90;;;;;;5057245;28;20040;-71
2023/08/28 08:16:36;;;;;;;4.13;1.08;;;17.60;99.90;;;;;;5062169;28;20044;-71
2023/08/28 08:19:02;;;;;;;4.22;1.10;;;17.80;99.90;;;;;;5061588;28;20067;-72
2023/08/28 08:21:28;;;;;;;2.83;1.00;;;17.90;99.90;;;;;;5062126;28;20045;-72
2023/08/28 08:23:55;;;;;;;3.58;0.90;;;17.90;99.90;;;;;;5043112;28;20057;-72
2023/08/28 08:26:21;;;;;;;3.35;0.80;;;18.00;99.90;;;;;;5045080;28;20054;-71
2023/08/28 08:28:47;;;;;;;4.60;0.93;;;18.00;99.90;;;;;;5058108;28;20166;-72
2023/08/28 08:31:13;;;;;;;3.83;1.10;;;18.00;99.90;;;;;;5053969;28;20505;-72
2023/08/28 08:33:39;;;;;;;6.32;0.90;;;18.00;99.90;;;;;;5056731;28;20047;-72
2023/08/28 08:36:05;;;;;;;3.75;0.70;;;18.00;99.90;;;;;;5059905;28;20124;-71
2023/08/28 08:38:31;;;;;;;2.42;0.70;;;17.90;99.90;;;;;;5054108;28;20044;-72
2023/08/28 08:40:58;;;;;;;3.72;1.15;;;18.00;99.90;;;;;;5063412;28;20043;-72
2023/08/28 08:43:28;;;;;;;2.88;0.77;;;18.10;99.90;;;;;;5059247;28;20138;-72
2023/08/28 08:46:04;;;;;;;4.10;0.90;;;18.10;99.90;;;;;;5059247;28;20044;-72
2023/08/28 08:48:38;;;;;;;4.53;0.90;;;18.10;99.90;;;;;;5046661;28;20040;-72
2023/08/28 08:51:06;;;;;;;4.53;0.95;;;18.10;99.90;;;;;;5034862;28;20048;-72
2023/08/28 08:54:06;;;;;;;5.90;1.00;;;18.10;99.90;;;;;;5059426;28;20056;-71
2023/08/28 08:56:34;;;;;;;2.88;0.95;;;18.00;99.90;;;;;;5063614;28;20049;-72
2023/08/28 08:59:00;;;;;;;2.97;0.90;;;18.00;99.90;;;;;;5063406;28;20051;-71
2023/08/28 09:01:28;;;;;;;2.03;0.70;;;18.00;99.90;;;;;;5078114;28;20593;-72
2023/08/28 09:03:57;;;;;;;4.93;0.90;;;18.00;99.90;;;;;;5053587;28;20041;-71
2023/08/28 09:06:25;;;;;;;2.63;0.70;;;18.00;99.90;;;;;;5060056;28;20386;-71
2023/08/28 09:08:51;;;;;;;3.85;0.75;;;18.10;99.90;;;;;;5059835;28;20040;-72
2023/08/28 09:11:17;;;;;;;4.13;0.80;;;18.20;99.90;;;;;;5061101;28;20101;-72
2023/08/28 09:13:43;;;;;;;3.72;0.90;;;18.30;99.90;;;;;;5060138;28;20111;-71
2023/08/28 09:16:10;;;;;;;3.38;0.77;;;18.50;99.90;;;;;;5065889;28;20051;-72
2023/08/28 09:18:35;;;;;;;5.05;0.90;;;18.60;99.90;;;;;;5057634;28;20110;-71
2023/08/28 09:21:12;;;;;;;3.45;0.82;;;18.70;99.90;;;;;;5037609;28;20037;-72
2023/08/28 09:23:46;;;;;;;3.17;0.73;;;18.70;99.90;;;;;;5060778;28;20048;-72
2023/08/28 09:26:20;;;;;;;4.43;0.80;;;18.80;99.90;;;;;;5062399;28;20063;-72
2023/08/28 09:28:59;;;;;;;4.47;0.90;;;18.80;99.90;;;;;;5059139;28;20080;-72
2023/08/28 09:31:48;;;;;;;3.50;0.90;;;18.80;99.90;;;;;;5062920;28;20037;-72
2023/08/28 09:34:14;;;;;;;3.75;0.90;;;18.70;99.90;;;;;;5066142;28;20115;-71
2023/08/28 09:36:40;;;;;;;1.73;0.80;;;18.70;99.90;;;;;;5063249;28;20043;-71
2023/08/28 09:39:06;;;;;;;2.67;0.75;;;18.60;99.90;;;;;;5063877;28;20127;-71
2023/08/28 09:41:45;;;;;;;2.33;0.55;;;18.50;99.90;;;;;;5062964;28;20041;-71
2023/08/28 09:44:13;;;;;;;2.85;0.70;;;18.40;99.90;;;;;;5040412;28;20816;-71
2023/08/28 09:46:41;;;;;;;2.17;0.95;;;18.30;99.90;;;;;;5054294;28;20053;-72
2023/08/28 09:49:09;;;;;;;1.65;0.60;;;18.30;99.90;;;;;;5062770;28;20080;-71
2023/08/28 09:51:40;;;;;;;3.40;0.80;;;18.20;99.90;;;;;;5052664;28;20052;-72
2023/08/28 09:54:06;;;;;;;;;;;18.10;99.90;;;;;;5035791;28;20101;-71
2023/08/28 09:56:31;;;;;;;3.05;0.77;;;18.10;99.90;;;;;;5059531;28;19928;-72
2023/08/28 09:58:58;;;;;;;3.47;0.90;;;18.00;99.90;;;;;;5061886;28;20135;-72
2023/08/28 10:01:29;;;;;;;4.28;0.95;;;18.00;99.90;;;;;;5062661;28;20520;-72
2023/08/28 10:03:55;;;;;;;;;;;18.00;99.90;;;;;;5059135;28;20048;-72
2023/08/28 10:06:22;;;;;;;2.47;0.73;;;18.00;99.90;;;;;;5059015;28;19928;-72
2023/08/28 10:08:49;;;;;;;3.97;1.00;;;17.90;99.90;;;;;;5075044;28;20086;-72
2023/08/28 10:11:14;;;;;;;3.13;0.90;;;17.90;99.90;;;;;;5059146;28;20045;-72
2023/08/28 10:13:41;;;;;;;2.47;0.70;;;17.90;99.90;;;;;;5061603;28;20040;-72
2023/08/28 10:16:11;;;;;;;2.25;0.70;;;18.00;99.90;;;;;;5061879;28;20047;-72
2023/08/28 10:18:48;;;;;;;1.55;0.60;;;18.00;99.90;;;;;;5060048;28;20264;-72
2023/08/28 10:21:16;;;;;;;4.50;1.00;;;18.00;99.90;;;;;;5063679;28;20706;-72
2023/08/28 10:23:43;;;;;;;2.00;0.80;;;18.00;99.90;;;;;;5062044;28;20824;-72
2023/08/28 10:26:10;;;;;;;4.03;1.02;;;18.00;99.90;;;;;;5062339;28;20044;-72
2023/08/28 10:28:37;;;;;;;4.18;1.10;;;18.10;99.90;;;;;;5060586;28;20485;-71
2023/08/28 10:31:05;;;;;;;4.80;0.80;;;18.10;99.90;;;;;;5062349;28;20049;-72
2023/08/28 10:33:34;;;;;;;3.60;0.80;;;18.10;99.90;;;;;;5064293;28;20061;-72
2023/08/28 10:36:08;;;;;;;2.67;0.88;;;18.10;99.90;;;;;;5043225;28;20047;-72
2023/08/28 10:38:34;;;;;;;4.28;0.90;;;18.10;99.90;;;;;;5061724;28;20045;-72
2023/08/28 10:41:01;;;;;;;2.60;0.82;;;18.10;99.90;;;;;;5057525;28;20063;-72
2023/08/28 10:43:28;;;;;;;2.75;0.82;;;18.10;99.90;;;;;;5057367;28;20040;-72
2023/08/28 10:45:56;;;;;;;4.15;1.15;;;18.20;99.90;;;;;;5062482;28;20484;-72
2023/08/28 10:48:22;;;;;;;3.10;0.80;;;18.20;99.90;;;;;;5040437;28;20121;-72
2023/08/28 10:50:48;;;;;;;2.67;0.90;;;18.20;99.90;;;;;;5059673;28;20070;-72
2023/08/28 10:53:15;;;;;;;4.38;0.80;;;18.30;99.90;;;;;;5058602;28;20135;-72
2023/08/28 10:55:52;;;;;;;4.93;0.90;;;18.40;99.90;;;;;;5058786;28;20077;-72
2023/08/28 10:58:18;;;;;;;3.53;0.88;;;18.50;99.90;;;;;;5041280;28;20040;-72
2023/08/28 11:00:44;;;;;;;3.63;0.95;;;18.60;99.90;;;;;;5056485;28;20058;-72
2023/08/28 11:03:15;;;;;;;3.60;0.90;;;18.70;99.90;;;;;;5057266;28;20047;-73
2023/08/28 11:05:42;;;;;;;3.90;0.82;;;18.80;99.90;;;;;;5056661;28;20453;-73
2023/08/28 11:08:13;;;;;;;3.53;0.80;;;18.80;99.90;;;;;;5059755;28;20457;-71
2023/08/28 11:10:49;;;;;;;4.57;1.02;;;18.80;99.90;;;;;;5056827;28;20040;-72
2023/08/28 11:13:23;;;;;;;3.47;0.90;;;18.80;99.90;;;;;;5054357;28;20628;-72
2023/08/28 11:16:01;;;;;;;2.20;0.70;;;18.70;99.90;;;;;;5041009;28;20041;-72
2023/08/28 11:18:30;;;;;;;3.80;0.90;;;18.70;99.90;;;;;;5056629;28;20055;-73
2023/08/28 11:20:57;;;;;;;1.58;0.65;;;18.70;99.90;;;;;;5054699;28;20689;-72
2023/08/28 11:23:26;;;;;;;7.38;1.15;;;18.70;99.90;;;;;;5055749;28;20111;-71
2023/08/28 11:25:52;;;;;;;2.35;0.70;;;18.60;99.90;;;;;;5055731;28;20080;-71
2023/08/28 11:28:25;;;;;;;2.95;0.82;;;18.60;99.90;;;;;;5054599;28;20141;-72
2023/08/28 11:30:51;;;;;;;3.22;1.10;;;18.60;99.90;;;;;;5043756;28;20040;-72
2023/08/28 11:33:19;;;;;;;2.28;0.75;;;18.60;99.90;;;;;;5055258;28;20051;-72
2023/08/28 11:35:45;;;;;;;2.85;0.90;;;18.60;99.90;;;;;;5055887;28;20886;-72
2023/08/28 11:38:11;;;;;;;3.97;0.82;;;18.70;99.90;;;;;;5059243;28;20041;-71
2023/08/28 11:40:37;;;;;;;3.13;0.90;;;18.70;99.90;;;;;;5057855;28;20041;-71
2023/08/28 11:43:06;;;;;;;1.80;0.60;;;18.80;99.90;;;;;;5060912;28;20151;-72
2023/08/28 11:45:32;;;;;;;3.47;0.90;;;18.90;99.90;;;;;;5035311;28;20041;-73
2023/08/28 11:48:05;;;;;;;4.72;1.08;;;19.00;99.90;;;;;;5040763;28;20460;-72
2023/08/28 11:50:31;;;;;;;4.18;1.00;;;19.00;99.90;;;;;;5044022;28;20147;-72
2023/08/28 11:52:58;;;;;;;4.00;0.98;;;19.10;99.90;;;;;;5057207;28;20042;-72
2023/08/28 11:55:24;;;;;;;2.92;1.17;;;19.20;99.90;;;;;;5057486;28;20033;-72
2023/08/28 11:57:51;;;;;;;2.55;0.90;;;19.20;99.90;;;;;;5057411;28;20041;-72
2023/08/28 12:00:17;;;;;;;4.28;1.15;;;19.30;99.90;;;;;;5059097;28;20051;-72
2023/08/28 12:02:48;;;;;;;2.67;0.73;;;19.40;99.90;;;;;;5057618;28;20775;-72
2023/08/28 12:05:18;;;;;;;4.72;1.08;;;19.40;99.90;;;;;;5056204;28;20536;-73
2023/08/28 12:07:45;;;;;;;4.03;0.90;;;19.40;99.90;;;;;;5038381;28;20578;-72
2023/08/28 12:10:13;;;;;;;5.82;1.00;;;19.40;99.90;;;;;;5055734;28;20079;-72
2023/08/28 12:12:40;;;;;;;4.93;0.90;;;19.40;99.90;;;;;;5037780;28;20048;-71
2023/08/28 12:15:08;;;;;;;3.17;0.90;;;19.30;99.90;;;;;;5054852;28;20607;-72
2023/08/28 12:17:34;;;;;;;4.30;1.15;;;19.30;99.90;;;;;;5060598;28;20106;-71
2023/08/28 12:19:59;;;;;;;3.55;0.80;;;19.20;99.90;;;;;;5055965;28;20454;-72
2023/08/28 12:22:25;;;;;;;3.20;0.90;;;19.10;99.90;;;;;;5054740;28;20140;-72
2023/08/28 12:24:52;;;;;;;4.60;0.80;;;19.10;99.90;;;;;;5057330;28;20044;-72
2023/08/28 12:27:26;;;;;;;3.58;0.80;;;19.10;99.90;;;;;;5056740;28;20041;-72
2023/08/28 12:29:54;;;;;;;4.68;0.80;;;19.10;99.90;;;;;;5057285;28;20045;-72
2023/08/28 12:32:20;;;;;;;2.97;0.70;;;19.00;99.90;;;;;;5059182;28;20053;-71
2023/08/28 12:34:47;;;;;;;3.63;0.77;;;19.10;99.90;;;;;;5050273;28;20123;-72
2023/08/28 12:37:14;;;;;;;3.22;0.82;;;19.10;99.90;;;;;;5050065;28;20048;-71
2023/08/28 12:39:51;;;;;;;1.98;0.80;;;19.10;99.90;;;;;;5039317;28;21254;-71
2023/08/28 12:42:18;;;;;;;3.00;0.70;;;19.10;99.90;;;;;;5054597;28;20062;-71
2023/08/28 12:44:44;;;;;;;4.93;0.80;;;19.10;99.90;;;;;;5051228;28;20600;-71
2023/08/28 12:47:11;;;;;;;2.38;0.60;;;19.10;99.90;;;;;;5038309;28;20095;-68